createdAt,value
2019-03-21T14:33:34.723Z,44.43
2019-03-21T14:34:34.711Z,45.14
2019-03-21T14:35:34.700Z,46.25
2019-03-21T14:36:34.695Z,46.25
2019-03-21T14:37:34.679Z,45.54
2019-03-21T14:38:34.668Z,45.34
2019-03-21T14:39:34.659Z,44.73
2019-03-21T14:40:34.647Z,45.34
2019-03-21T14:41:34.635Z,46.25
2019-03-21T14:42:34.694Z,45.24
2019-03-21T14:43:34.618Z,44.83
2019-03-21T14:44:34.604Z,45.24
2019-03-21T14:45:34.646Z,46.65
2019-03-21T14:46:34.583Z,46.85
2019-03-21T14:47:36.326Z,47.38
2019-03-21T14:48:34.559Z,46.17
2019-03-21T14:49:34.548Z,45.46
2019-03-21T14:50:34.538Z,45.46
2019-03-21T14:51:34.531Z,45.54
2019-03-21T14:52:34.515Z,45.84
2019-03-21T14:53:34.507Z,47.66
2019-03-21T14:54:34.497Z,47.58
2019-03-21T14:55:34.485Z,47.48
2019-03-21T14:56:34.475Z,45.77
2019-03-21T14:57:34.461Z,45.15
2019-03-21T14:58:34.451Z,45.97
2019-03-21T14:59:34.440Z,46.97
2019-03-21T15:00:34.429Z,46.37
2019-03-21T15:01:34.417Z,46.67
2019-03-21T15:02:34.410Z,44.95
2019-03-21T15:03:34.403Z,45.56
2019-03-21T15:04:34.385Z,47.38
2019-03-21T15:05:34.373Z,46.67
2019-03-21T15:06:34.364Z,47.38
2019-03-21T15:07:34.352Z,46.27
2019-03-21T15:08:34.341Z,45.97
2019-03-21T15:09:34.330Z,46.88
2019-03-21T15:10:34.320Z,45.97
2019-03-21T15:11:34.354Z,46.27
2019-03-21T15:12:34.297Z,46.27
2019-03-21T15:13:34.353Z,46.88
2019-03-21T15:14:34.278Z,46.57
2019-03-21T15:15:34.266Z,48.19
2019-03-21T15:16:34.255Z,47.79
2019-03-21T15:17:34.247Z,48.11
2019-03-21T15:18:34.233Z,47.30
2019-03-21T15:19:34.221Z,47.00
2019-03-21T15:20:34.211Z,48.21
2019-03-21T15:21:34.200Z,47.00
2019-03-21T15:22:34.188Z,46.49
2019-03-21T15:23:40.735Z,47.60
2019-03-21T15:24:55.346Z,47.91
2019-03-21T15:25:55.506Z,47.10
2019-03-21T15:26:55.326Z,46.39
2019-03-21T15:27:55.315Z,47.60
2019-03-21T15:28:55.306Z,46.39
2019-03-21T15:29:55.352Z,48.62
2019-03-21T15:30:55.283Z,47.10
2019-03-21T15:31:55.270Z,47.20
2019-03-21T15:32:55.259Z,46.69
2019-03-21T15:33:55.250Z,47.81
2019-03-21T15:34:55.239Z,47.91
2019-03-21T15:35:55.226Z,47.73
2019-03-21T15:36:55.216Z,46.72
2019-03-21T15:37:55.207Z,46.61
2019-03-21T15:38:55.194Z,48.33
2019-03-21T15:39:55.187Z,48.24
2019-03-21T15:40:55.172Z,48.66
2019-03-21T15:41:55.164Z,48.56
2019-03-21T15:42:57.039Z,48.46
2019-03-21T15:43:55.141Z,47.75
2019-03-21T15:45:10.353Z,47.14
2019-03-21T15:45:56.135Z,47.14
2019-03-21T15:46:55.107Z,47.85
2019-03-21T15:47:55.100Z,47.75
2019-03-21T15:48:55.089Z,48.36
2019-03-21T15:49:55.079Z,48.46
2019-03-21T15:51:03.826Z,48.16
2019-03-21T15:52:16.235Z,47.96
2019-03-21T15:53:16.223Z,48.16
2019-03-21T15:54:16.211Z,48.05
2019-03-21T15:55:16.206Z,48.18
2019-03-21T15:56:16.191Z,48.79
2019-03-21T15:57:16.181Z,48.99
2019-03-21T15:58:16.174Z,48.99
2019-03-21T15:59:16.158Z,48.79
2019-03-21T16:00:16.148Z,48.68
2019-03-21T16:01:16.140Z,48.99
2019-03-21T16:02:16.130Z,48.99
2019-03-21T16:03:16.114Z,49.09
2019-03-21T16:04:16.103Z,49.52
2019-03-21T16:05:16.094Z,49.92
2019-03-21T16:06:16.082Z,49.21
2019-03-21T16:07:16.070Z,49.62
2019-03-21T16:08:16.063Z,49.62
2019-03-21T16:09:16.052Z,49.01
2019-03-21T16:10:16.039Z,49.42
2019-03-21T16:11:16.027Z,50.12
2019-03-21T16:12:16.018Z,49.72
2019-03-21T16:13:16.006Z,49.62
2019-03-21T16:14:16.000Z,49.72
2019-03-21T16:15:15.991Z,49.72
2019-03-21T16:16:15.974Z,49.82
2019-03-21T16:17:15.964Z,50.63
2019-03-21T16:18:15.953Z,49.32
2019-03-21T16:19:15.944Z,50.23
2019-03-21T16:20:15.931Z,50.23
2019-03-21T16:21:15.924Z,49.95
2019-03-21T16:22:15.909Z,49.95
2019-03-21T16:23:15.900Z,49.74
2019-03-21T16:24:15.890Z,50.25
2019-03-21T16:25:15.878Z,50.65
2019-03-21T16:26:15.868Z,50.65
2019-03-21T16:27:15.854Z,50.86
2019-03-21T16:28:15.845Z,50.56
2019-03-21T16:29:15.834Z,51.26
2019-03-21T16:30:15.824Z,50.76
2019-03-21T16:31:15.811Z,50.05
2019-03-21T16:32:15.800Z,50.45
2019-03-21T16:33:15.791Z,50.86
2019-03-21T16:34:15.782Z,50.45
2019-03-21T16:35:15.771Z,50.45
2019-03-21T16:36:15.758Z,50.78
2019-03-21T16:37:15.784Z,50.78
2019-03-21T16:38:15.736Z,51.39
2019-03-21T16:39:15.727Z,51.29
2019-03-21T16:40:15.713Z,51.19
2019-03-21T16:41:15.704Z,51.39
2019-03-21T16:42:15.695Z,51.80
2019-03-21T16:43:15.684Z,51.92
2019-03-21T16:44:15.671Z,51.92
2019-03-21T16:45:15.663Z,51.82
2019-03-21T16:46:15.652Z,51.92
2019-03-21T16:47:15.639Z,52.33
2019-03-21T16:48:15.630Z,52.43
2019-03-21T16:49:15.622Z,52.43
2019-03-21T16:50:15.611Z,53.54
2019-03-21T16:51:15.598Z,53.54
2019-03-21T16:52:15.586Z,53.95
2019-03-21T16:53:15.574Z,52.94
2019-03-21T16:54:17.347Z,52.94
2019-03-21T16:55:15.552Z,53.44
2019-03-21T16:56:15.551Z,53.54
2019-03-21T16:57:15.531Z,54.18
2019-03-21T16:58:15.520Z,54.15
2019-03-21T16:59:15.510Z,53.97
2019-03-21T17:00:17.774Z,54.08
2019-03-21T17:01:15.499Z,54.28
2019-03-21T17:02:15.476Z,54.28
2019-03-21T17:03:15.467Z,54.38
2019-03-21T17:04:15.455Z,54.58
2019-03-21T17:05:15.460Z,54.71
2019-03-21T17:06:15.455Z,54.10
2019-03-21T17:07:15.447Z,54.30
2019-03-21T17:08:15.514Z,54.81
2019-03-21T17:09:15.408Z,54.71
2019-03-21T17:10:15.420Z,55.52
2019-03-21T17:11:15.415Z,54.91
2019-03-21T17:12:15.369Z,55.12
2019-03-21T17:13:15.496Z,54.71
2019-03-21T17:14:15.367Z,54.91
2019-03-21T17:15:15.363Z,54.51
2019-03-21T17:16:15.334Z,54.91
2019-03-21T17:17:15.326Z,55.22
2019-03-21T17:18:15.307Z,55.55
2019-03-21T17:19:15.397Z,55.45
2019-03-21T17:20:15.284Z,55.75
2019-03-21T17:21:15.273Z,56.16
2019-03-21T17:22:15.306Z,56.26
2019-03-21T17:23:15.251Z,57.08
2019-03-21T17:24:15.241Z,57.17
2019-03-21T17:25:15.228Z,57.30
2019-03-21T17:26:15.965Z,57.30
2019-03-21T17:27:15.210Z,57.71
2019-03-21T17:28:15.198Z,57.33
2019-03-21T17:29:15.186Z,57.64
2019-03-21T17:30:15.175Z,57.64
2019-03-21T17:31:15.165Z,57.64
2019-03-21T17:32:17.354Z,58.34
2019-03-21T17:33:15.143Z,59.67
2019-03-21T17:34:15.132Z,61.32
2019-03-21T17:35:15.123Z,61.93
2019-03-21T17:36:15.118Z,61.56
2019-03-21T17:37:15.099Z,61.15
2019-03-21T17:38:15.089Z,61.86
2019-03-21T17:39:15.080Z,62.81
2019-03-21T17:40:15.074Z,62.60
2019-03-21T17:41:15.056Z,63.86
2019-03-21T17:42:15.051Z,63.65
2019-03-21T17:43:15.036Z,63.55
2019-03-21T17:44:15.024Z,64.39
2019-03-21T17:45:15.020Z,63.78
2019-03-21T17:46:15.000Z,63.48
2019-03-21T17:47:14.994Z,65.14
2019-03-21T17:48:14.982Z,65.03
2019-03-21T17:49:14.970Z,64.93
2019-03-21T17:50:14.963Z,65.03
2019-03-21T17:51:14.950Z,65.34
2019-03-21T17:52:14.937Z,65.85
2019-03-21T17:53:14.928Z,66.16
2019-03-21T17:54:14.917Z,66.26
2019-03-21T17:55:14.906Z,66.46
2019-03-21T17:56:14.894Z,66.60
2019-03-21T17:57:14.884Z,66.60
2019-03-21T17:58:14.874Z,66.69
2019-03-21T17:59:14.863Z,67.01
2019-03-21T18:00:14.850Z,67.10
2019-03-21T18:01:14.839Z,67.13
2019-03-21T18:02:14.831Z,67.34
2019-03-21T18:03:14.884Z,67.24
2019-03-21T18:04:14.806Z,67.13
2019-03-21T18:05:14.795Z,67.37
2019-03-21T18:06:14.787Z,67.98
2019-03-21T18:07:14.777Z,68.49
2019-03-21T18:08:14.763Z,68.73
2019-03-21T18:09:14.751Z,68.93
2019-03-21T18:10:14.743Z,69.04
2019-03-21T18:11:14.729Z,69.24
2019-03-21T18:12:14.721Z,69.14
2019-03-21T18:13:14.710Z,69.24
2019-03-21T18:14:14.919Z,69.34
2019-03-21T18:15:14.687Z,69.65
2019-03-21T18:16:14.709Z,69.55
2019-03-21T18:17:14.665Z,69.55
2019-03-21T18:18:14.653Z,69.45
2019-03-21T18:19:14.643Z,69.45
2019-03-21T18:20:14.632Z,69.55
2019-03-21T18:21:14.623Z,69.75
2019-03-21T18:22:14.610Z,69.86
2019-03-21T18:23:14.601Z,69.96
2019-03-21T18:24:14.590Z,70.19
2019-03-21T18:25:14.579Z,70.40
2019-03-21T18:26:14.567Z,70.60
2019-03-21T18:27:14.555Z,70.64
2019-03-21T18:28:14.546Z,71.25
2019-03-21T18:29:14.536Z,71.76
2019-03-21T18:30:14.524Z,72.17
2019-03-21T18:31:14.513Z,72.17
2019-03-21T18:32:14.503Z,72.00
2019-03-21T18:33:14.495Z,72.51
2019-03-21T18:34:14.484Z,73.12
2019-03-21T18:35:14.469Z,73.33
2019-03-21T18:36:14.457Z,73.33
2019-03-21T18:37:14.448Z,73.02
2019-03-21T18:38:14.437Z,72.85
2019-03-21T18:39:14.514Z,72.65
2019-03-21T18:40:14.414Z,72.85
2019-03-21T18:41:14.403Z,72.95
2019-03-21T18:42:14.397Z,73.36
2019-03-21T18:43:14.383Z,73.70
2019-03-21T18:44:14.373Z,73.70
2019-03-21T18:45:14.362Z,73.91
2019-03-21T18:46:14.350Z,74.11
2019-03-21T18:47:14.338Z,73.91
2019-03-21T18:48:14.327Z,74.01
2019-03-21T18:49:14.317Z,74.11
2019-03-21T18:50:14.303Z,74.35
2019-03-21T18:51:14.302Z,74.35
2019-03-21T18:52:14.285Z,74.21
2019-03-21T18:53:14.279Z,74.45
2019-03-21T18:54:14.261Z,74.45
2019-03-21T18:55:14.253Z,74.25
2019-03-21T18:56:14.242Z,74.11
2019-03-21T18:57:14.229Z,73.91
2019-03-21T18:58:14.220Z,73.80
2019-03-21T18:59:14.207Z,73.91
2019-03-21T19:00:14.195Z,73.95
2019-03-21T19:01:14.189Z,74.15
2019-03-21T19:02:14.176Z,74.35
2019-03-21T19:03:14.165Z,74.45
2019-03-21T19:04:14.154Z,74.66
2019-03-21T19:05:14.141Z,74.66
2019-03-21T19:06:14.132Z,74.87
2019-03-21T19:07:14.121Z,75.10
2019-03-21T19:08:14.107Z,75.21
2019-03-21T19:09:14.097Z,75.31
2019-03-21T19:10:14.089Z,75.31
2019-03-21T19:11:14.077Z,75.51
2019-03-21T19:12:14.066Z,75.62
2019-03-21T19:13:14.053Z,75.62
2019-03-21T19:14:14.045Z,76.26
2019-03-21T19:15:14.034Z,76.47
2019-03-21T19:16:14.021Z,76.58
2019-03-21T19:17:14.009Z,77.22
2019-03-21T19:18:13.998Z,76.92
2019-03-21T19:19:13.991Z,77.02
2019-03-21T19:20:13.977Z,76.81
2019-03-21T19:21:13.967Z,76.71
2019-03-21T19:22:13.956Z,76.40
2019-03-21T19:23:13.947Z,76.10
2019-03-21T19:24:13.934Z,76.30
2019-03-21T19:25:18.991Z,76.71
2019-03-21T19:26:13.915Z,77.22
2019-03-21T19:27:13.905Z,77.64
2019-03-21T19:28:13.889Z,77.64
2019-03-21T19:29:15.078Z,77.53
2019-03-21T19:30:13.874Z,77.74
2019-03-21T19:31:13.859Z,77.84
2019-03-21T19:32:13.847Z,78.05
2019-03-21T19:33:13.837Z,78.28
2019-03-21T19:34:13.826Z,78.49
2019-03-21T19:35:13.814Z,78.90
2019-03-21T19:36:13.805Z,78.90
2019-03-21T19:37:13.795Z,78.90
2019-03-21T19:38:13.786Z,79.11
2019-03-21T19:39:13.773Z,79.21
2019-03-21T19:40:13.761Z,79.35
2019-03-21T19:41:13.750Z,79.45
2019-03-21T19:42:13.738Z,79.55
2019-03-21T19:43:13.727Z,79.66
2019-03-21T19:44:13.718Z,79.76
2019-03-21T19:45:13.707Z,79.55
2019-03-21T19:46:13.697Z,79.55
2019-03-21T19:47:23.169Z,79.76
2019-03-21T19:48:14.692Z,79.62
2019-03-21T19:49:13.672Z,79.55
2019-03-21T19:50:13.653Z,79.55
2019-03-21T19:51:13.642Z,79.76
2019-03-21T19:52:13.632Z,79.76
2019-03-21T19:53:13.619Z,79.87
2019-03-21T19:54:13.608Z,79.80
2019-03-21T19:55:13.596Z,80.21
2019-03-21T19:56:13.585Z,80.72
2019-03-21T19:57:13.574Z,80.82
2019-03-21T19:58:13.562Z,80.93
2019-03-21T19:59:13.554Z,81.03
2019-03-21T20:00:13.548Z,81.03
2019-03-21T20:01:13.531Z,80.72
2019-03-21T20:02:13.518Z,80.52
2019-03-21T20:03:13.513Z,80.41
2019-03-21T20:04:13.496Z,80.62
2019-03-21T20:05:13.487Z,80.82
2019-03-21T20:06:13.476Z,80.93
2019-03-21T20:07:13.464Z,80.96
2019-03-21T20:08:13.461Z,81.28
2019-03-21T20:09:13.442Z,81.28
2019-03-21T20:10:13.432Z,81.42
2019-03-21T20:11:13.421Z,81.42
2019-03-21T20:12:13.432Z,81.52
2019-03-21T20:13:13.399Z,81.82
2019-03-21T20:14:13.388Z,81.82
2019-03-21T20:15:13.377Z,82.03
2019-03-21T20:16:13.364Z,82.48
2019-03-21T20:17:13.353Z,82.38
2019-03-21T20:18:13.342Z,82.89
2019-03-21T20:19:13.331Z,83.10
2019-03-21T20:20:13.320Z,83.30
2019-03-21T20:21:13.309Z,83.30
2019-03-21T20:22:13.300Z,83.72
2019-03-21T20:23:13.288Z,83.96
2019-03-21T20:24:13.278Z,84.27
2019-03-21T20:25:13.267Z,84.37
2019-03-21T20:26:13.253Z,84.47
2019-03-21T20:27:13.244Z,84.37
2019-03-21T20:28:13.232Z,84.37
2019-03-21T20:29:13.223Z,84.58
2019-03-21T20:30:13.214Z,84.47
2019-03-21T20:31:13.198Z,84.68
2019-03-21T20:32:20.487Z,84.58
2019-03-21T20:33:34.359Z,84.47
2019-03-21T20:34:34.349Z,84.47
2019-03-21T20:35:34.337Z,84.47
2019-03-21T20:36:34.329Z,84.58
2019-03-21T20:37:34.316Z,84.79
2019-03-21T20:38:34.307Z,84.99
2019-03-21T20:39:34.295Z,84.68
2019-03-21T20:40:34.285Z,84.47
2019-03-21T20:41:34.273Z,84.58
2019-03-21T20:42:34.268Z,84.68
2019-03-21T20:43:34.252Z,84.79
2019-03-21T20:44:34.240Z,84.79
2019-03-21T20:45:34.230Z,84.47
2019-03-21T20:46:34.223Z,84.58
2019-03-21T20:47:35.224Z,84.68
2019-03-21T20:48:34.196Z,84.68
2019-03-21T20:49:34.190Z,85.03
2019-03-21T20:50:34.179Z,84.93
2019-03-21T20:51:34.166Z,85.24
2019-03-21T20:52:34.153Z,85.44
2019-03-21T20:53:34.146Z,85.65
2019-03-21T20:54:34.134Z,85.69
2019-03-21T20:55:34.122Z,85.69
2019-03-21T20:56:34.112Z,86.20
2019-03-21T20:57:34.102Z,86.41
2019-03-21T20:58:34.092Z,86.20
2019-03-21T20:59:34.080Z,86.20
2019-03-21T21:00:34.070Z,86.41
2019-03-21T21:01:34.058Z,86.30
2019-03-21T21:02:34.050Z,86.20
2019-03-21T21:03:34.038Z,86.51
2019-03-21T21:04:34.026Z,86.82
2019-03-21T21:05:34.015Z,86.82
2019-03-21T21:06:34.005Z,87.03
2019-03-21T21:07:33.996Z,87.13
2019-03-21T21:08:33.982Z,86.92
2019-03-21T21:09:33.972Z,86.71
2019-03-21T21:10:33.962Z,86.41
2019-03-21T21:11:35.165Z,86.55
2019-03-21T21:12:33.939Z,86.96
2019-03-21T21:13:33.927Z,87.37
2019-03-21T21:14:33.919Z,87.48
2019-03-21T21:15:33.908Z,87.68
2019-03-21T21:16:33.898Z,87.79
2019-03-21T21:17:33.886Z,87.89
2019-03-21T21:18:33.876Z,87.89
2019-03-21T21:19:33.863Z,87.79
2019-03-21T21:20:33.856Z,87.58
2019-03-21T21:21:33.841Z,87.27
2019-03-21T21:22:33.832Z,87.72
2019-03-21T21:23:33.822Z,87.82
2019-03-21T21:24:33.812Z,87.52
2019-03-21T21:25:33.799Z,87.82
2019-03-21T21:26:33.788Z,88.03
2019-03-21T21:27:33.778Z,88.24
2019-03-21T21:28:34.818Z,88.65
2019-03-21T21:29:33.756Z,88.75
2019-03-21T21:30:33.750Z,88.65
2019-03-21T21:31:33.740Z,88.55
2019-03-21T21:32:33.727Z,88.34
2019-03-21T21:33:33.715Z,88.34
2019-03-21T21:34:33.701Z,88.65
2019-03-21T21:35:33.695Z,88.96
2019-03-21T21:36:33.682Z,89.06
2019-03-21T21:37:33.671Z,88.86
2019-03-21T21:38:33.658Z,88.45
2019-03-21T21:39:33.650Z,88.55
2019-03-21T21:40:33.638Z,88.75
2019-03-21T21:41:33.628Z,89.06
2019-03-21T21:42:33.620Z,89.17
2019-03-21T21:43:33.606Z,89.06
2019-03-21T21:44:33.596Z,89.06
2019-03-21T21:45:33.585Z,88.75
2019-03-21T21:46:33.575Z,88.86
2019-03-21T21:47:33.565Z,88.96
2019-03-21T21:48:33.557Z,88.96
2019-03-21T21:49:33.544Z,88.86
2019-03-21T21:50:33.534Z,88.96
2019-03-21T21:51:33.526Z,88.96
2019-03-21T21:52:41.811Z,89.11
2019-03-21T21:53:54.731Z,89.21
2019-03-21T21:54:54.720Z,89.52
2019-03-21T21:55:54.708Z,89.62
2019-03-21T21:56:54.698Z,89.83
2019-03-21T21:57:54.689Z,89.83
2019-03-21T21:58:54.686Z,89.62
2019-03-21T21:59:54.670Z,89.62
2019-03-21T22:00:54.656Z,89.52
2019-03-21T22:01:54.647Z,89.83
2019-03-21T22:02:54.634Z,89.62
2019-03-21T22:04:04.277Z,89.93
2019-03-21T22:04:55.626Z,89.93
2019-03-21T22:05:54.600Z,89.93
2019-03-21T22:06:54.591Z,89.83
2019-03-21T22:07:54.578Z,89.83
2019-03-21T22:08:54.566Z,89.93
2019-03-21T22:09:54.554Z,89.72
2019-03-21T22:10:54.547Z,89.87
2019-03-21T22:11:54.535Z,90.08
2019-03-21T22:12:54.537Z,90.18
2019-03-21T22:13:54.515Z,90.38
2019-03-21T22:14:54.502Z,90.49
2019-03-21T22:15:54.491Z,90.69
2019-03-21T22:16:54.482Z,91.00
2019-03-21T22:17:54.470Z,90.90
2019-03-21T22:18:54.461Z,91.11
2019-03-21T22:19:54.450Z,91.32
2019-03-21T22:20:54.440Z,91.41
2019-03-21T22:21:54.427Z,91.52
2019-03-21T22:22:54.416Z,91.41
2019-03-21T22:23:54.407Z,91.52
2019-03-21T22:24:54.394Z,91.32
2019-03-21T22:25:54.390Z,91.11
2019-03-21T22:26:54.377Z,90.80
2019-03-21T22:27:54.364Z,90.69
2019-03-21T22:28:54.352Z,90.49
2019-03-21T22:29:54.340Z,90.42
2019-03-21T22:30:54.331Z,90.63
2019-03-21T22:31:54.319Z,91.15
2019-03-21T22:32:54.307Z,91.71
2019-03-21T22:33:54.297Z,92.12
2019-03-21T22:34:54.287Z,92.39
2019-03-21T22:35:54.276Z,92.49
2019-03-21T22:36:54.269Z,92.39
2019-03-21T22:37:54.255Z,91.66
2019-03-21T22:38:54.246Z,91.35
2019-03-21T22:39:54.231Z,91.19
2019-03-21T22:40:54.225Z,91.09
2019-03-21T22:41:54.211Z,91.40
2019-03-21T22:42:54.200Z,91.81
2019-03-21T22:43:54.192Z,92.02
2019-03-21T22:44:54.184Z,92.02
2019-03-21T22:45:54.169Z,92.02
2019-03-21T22:46:54.158Z,92.54
2019-03-21T22:47:54.148Z,92.74
2019-03-21T22:48:54.135Z,92.74
2019-03-21T22:49:54.124Z,92.74
2019-03-21T22:50:54.115Z,92.84
2019-03-21T22:51:54.103Z,92.74
2019-03-21T22:52:54.094Z,92.74
2019-03-21T22:53:54.084Z,92.43
2019-03-21T22:54:54.072Z,92.33
2019-03-21T22:55:54.060Z,92.49
2019-03-21T22:56:54.052Z,92.49
2019-03-21T22:57:54.038Z,92.49
2019-03-21T22:58:54.028Z,92.49
2019-03-21T22:59:54.016Z,92.49
2019-03-21T23:00:54.007Z,92.08
2019-03-21T23:01:54.005Z,91.97
2019-03-21T23:02:53.989Z,91.97
2019-03-21T23:03:53.975Z,92.08
2019-03-21T23:04:53.964Z,92.08
2019-03-21T23:05:53.992Z,92.18
2019-03-21T23:06:53.947Z,92.08
2019-03-21T23:07:53.932Z,91.97
2019-03-21T23:08:53.929Z,91.87
2019-03-21T23:09:53.911Z,92.08
2019-03-21T23:10:53.901Z,92.08
2019-03-21T23:23:52.271Z,91.35
2019-03-21T23:24:52.288Z,91.09
2019-03-21T23:25:52.271Z,90.88
2019-03-21T23:26:53.277Z,91.19
2019-03-21T23:27:52.228Z,91.40
2019-03-21T23:28:52.217Z,91.60
2019-03-21T23:29:52.206Z,91.71
2019-03-21T23:30:52.201Z,91.81
2019-03-21T23:31:52.182Z,91.71
2019-03-21T23:32:52.173Z,92.02
2019-03-21T23:33:52.166Z,92.33
2019-03-21T23:34:52.149Z,92.54
2019-03-21T23:35:52.140Z,92.54
2019-03-21T23:36:52.132Z,92.63
2019-03-21T23:37:52.119Z,92.54
2019-03-21T23:38:52.106Z,92.54
2019-03-21T23:39:52.097Z,92.33
2019-03-21T23:40:52.087Z,92.43
2019-03-21T23:41:52.076Z,92.33
2019-03-21T23:42:52.064Z,92.23
2019-03-21T23:43:52.063Z,92.23
2019-03-21T23:44:52.042Z,92.02
2019-03-21T23:45:52.032Z,92.02
2019-03-21T23:46:52.024Z,91.91
2019-03-21T23:47:52.010Z,91.81
2019-03-21T23:48:52.002Z,91.40
2019-03-21T23:49:51.989Z,91.44
2019-03-21T23:50:51.988Z,91.75
2019-03-21T23:51:51.965Z,92.27
2019-03-21T23:52:51.957Z,92.88
2019-03-21T23:53:51.944Z,93.20
2019-03-21T23:54:51.934Z,93.09
2019-03-21T23:55:51.926Z,93.09
2019-03-21T23:56:51.915Z,93.09
2019-03-21T23:57:51.903Z,92.84
2019-03-21T23:58:51.889Z,92.74
2019-03-21T23:59:51.879Z,92.68
